Time;durP1;ratioP1;P1;durP2;ratioP2;P2;SDS_P1;SDS_P2;PMS_P1;PMS_P2;Temp;Humidity;BMP_temperature;BMP_pressure;BME280_temperature;BME280_humidity;BME280_pressure;Samples;Min_cycle;Max_cycle;Signal;HPM_P1;HPM_P2
2022/04/04 00:00:57;;;;;;;;;;;;;;;19.92;39.99;101014.84;104329;1311;72754;-85
2022/04/04 00:03:33;;;;;;;;;;;;;;;19.92;39.90;101018.93;104313;1313;75227;-81
2022/04/04 00:06:08;;;;;;;;;;;;;;;19.92;39.98;101018.59;104376;1311;61237;-79
2022/04/04 00:08:47;;;;;;;;;;;;;;;;;;;;;
2022/04/04 00:11:20;;;;;;;;;;;;;;;19.92;39.99;101028.95;104298;1313;73739;-82
2022/04/04 00:13:51;;;;;;;;;;;;;;;19.92;39.83;101034.70;104375;1311;75847;-84
2022/04/04 00:16:23;;;;;;;;;;;;;;;19.92;39.88;101037.39;104363;1311;61454;-82
2022/04/04 00:19:09;;;;;;;;;;;;;;;19.92;40.10;101044.52;104424;1311;61201;-82
2022/04/04 00:21:45;;;;;;;;;;;;;;;19.91;40.08;101042.44;104331;1311;73147;-84
2022/04/04 00:24:16;;;;;;;;;;;;;;;19.91;40.04;101051.52;104213;1313;76460;-86
2022/04/04 00:27:01;;;;;;;;;;;;;;;19.90;40.00;101054.95;104385;1311;61470;-78
2022/04/04 00:29:43;;;;;;;;;;;;;;;19.90;39.94;101057.83;104350;1310;61510;-83
2022/04/04 00:32:30;;;;;;;;;;;;;;;19.91;40.20;101055.48;104244;1313;73121;-82
2022/04/04 00:35:10;;;;;;;;;;;;;;;19.90;40.16;101058.69;104453;1306;76220;-85
2022/04/04 00:37:39;;;;;;;;;;;;;;;19.90;40.01;101062.33;104638;1305;61764;-84
2022/04/04 00:40:08;;;;;;;;;;;;;;;19.90;39.91;101068.21;104671;1305;61507;-79
2022/04/04 00:42:39;;;;;;;;;;;;;;;19.89;40.03;101071.29;104762;1305;73635;-80
2022/04/04 00:45:11;;;;;;;;;;;;;;;19.89;39.94;101072.55;104696;1306;75820;-81
2022/04/04 00:47:39;;;;;;;;;;;;;;;19.89;39.94;101075.57;104864;1305;61236;-87
2022/04/04 00:50:11;;;;;;;;;;;;;;;19.89;39.95;101072.40;104919;1305;61517;-82
2022/04/04 00:52:40;;;;;;;;;;;;;;;19.88;40.03;101075.11;104575;1305;72723;-82
2022/04/04 00:55:11;;;;;;;;;;;;;;;19.88;40.01;101076.19;104801;1305;75777;-80
2022/04/04 00:57:40;;;;;;;;;;;;;;;19.87;40.00;101080.33;104693;1306;61313;-83
2022/04/04 01:00:12;;;;;;;;;;;;;;;19.88;39.97;101085.70;104696;1306;61626;-87
2022/04/04 01:02:47;;;;;;;;;;;;;;;19.87;39.88;101086.43;104695;1306;73009;-79
2022/04/04 01:05:39;;;;;;;;;;;;;;;19.87;39.97;101092.34;104680;1305;74858;-87
2022/04/04 01:08:21;;;;;;;;;;;;;;;19.86;39.98;101093.25;104586;1305;61321;-83
2022/04/04 01:10:59;;;;;;;;;;;;;;;19.86;39.92;101098.99;104640;1306;61712;-81
2022/04/04 01:13:38;;;;;;;;;;;;;;;19.86;40.01;101101.48;104763;1305;72297;-85
2022/04/04 01:16:26;;;;;;;;;;;;;;;19.85;39.90;101102.41;104713;1306;76293;-82
2022/04/04 01:19:17;;;;;;;;;;;;;;;;;;;;;
2022/04/04 01:22:05;;;;;;;;;;;;;;;19.85;40.10;101095.27;104929;1305;61185;-87
2022/04/04 01:24:38;;;;;;;;;;;;;;;19.85;39.84;101098.69;104857;1305;73955;-80
2022/04/04 01:27:21;;;;;;;;;;;;;;;19.85;39.92;101100.84;104634;1306;74798;-80
2022/04/04 01:30:08;;;;;;;;;;;;;;;19.85;39.99;101102.27;104896;1305;63491;-83
2022/04/04 01:32:44;;;;;;;;;;;;;;;19.85;39.87;101104.41;104697;1306;61145;-84
2022/04/04 01:35:15;;;;;;;;;;;;;;;19.85;40.04;101109.44;104695;1306;73867;-81
2022/04/04 01:37:58;;;;;;;;;;;;;;;19.85;39.88;101114.63;104661;1305;75314;-84
2022/04/04 01:40:50;;;;;;;;;;;;;;;19.85;40.04;101120.16;104890;1305;61180;-83
2022/04/04 01:43:16;;;;;;;;;;;;;;;19.84;39.97;101125.18;104908;1305;61285;-85
2022/04/04 01:48:39;;;;;;;;;;;;;;;19.84;39.97;101132.17;104733;1305;76298;-82
2022/04/04 01:51:05;;;;;;;;;;;;;;;19.84;40.10;101136.46;104716;1306;61301;-84
2022/04/04 01:53:36;;;;;;;;;;;;;;;19.83;40.04;101135.07;104686;1305;61747;-81
2022/04/04 01:56:14;;;;;;;;;;;;;;;19.83;40.09;101133.12;104686;1305;72694;-79
2022/04/04 01:58:44;;;;;;;;;;;;;;;19.82;39.88;101129.40;104587;1307;75692;-84
2022/04/04 02:01:11;;;;;;;;;;;;;;;19.82;40.05;101129.60;104878;1305;61148;-79
2022/04/04 02:03:41;;;;;;;;;;;;;;;19.82;39.85;101133.36;104674;1305;61354;-82
2022/04/04 02:06:12;;;;;;;;;;;;;;;19.81;40.01;101133.04;104626;1307;72968;-85
2022/04/04 02:08:53;;;;;;;;;;;;;;;19.81;39.95;101130.21;104733;1306;74238;-83
2022/04/04 02:11:34;;;;;;;;;;;;;;;19.81;40.01;101130.56;104811;1305;61314;-86
2022/04/04 02:14:02;;;;;;;;;;;;;;;19.81;40.05;101134.15;104709;1305;61273;-81
2022/04/04 02:16:33;;;;;;;;;;;;;;;19.81;40.03;101137.36;104702;1306;72612;-82
2022/04/04 02:18:59;;;;;;;;;;;;;;;19.80;40.03;101138.81;104715;1305;74845;-81
2022/04/04 02:21:45;;;;;;;;;;;;;;;19.79;39.96;101140.45;104350;1311;63311;-81
2022/04/04 02:24:22;;;;;;;;;;;;;;;19.80;39.76;101137.02;104252;1311;61333;-81
2022/04/04 02:27:03;;;;;;;;;;;;;;;19.79;39.96;101136.01;104285;1313;72753;-81
2022/04/04 02:29:32;;;;;;;;;;;;;;;19.79;40.02;101141.69;104360;1311;74925;-82
2022/04/04 02:31:58;;;;;;;;;;;;;;;19.79;39.93;101148.31;104376;1311;61128;-85
2022/04/04 02:34:27;;;;;;;;;;;;;;;19.79;40.07;101150.65;104328;1311;61287;-83
2022/04/04 02:36:55;;;;;;;;;;;;;;;19.79;39.87;101155.15;104381;1311;74148;-83
2022/04/04 02:39:24;;;;;;;;;;;;;;;19.78;40.04;101153.19;104314;1311;74821;-86
2022/04/04 02:41:55;;;;;;;;;;;;;;;19.78;39.95;101152.13;104399;1311;61306;-82
2022/04/04 02:44:23;;;;;;;;;;;;;;;19.78;40.05;101151.24;104374;1311;61572;-82
2022/04/04 02:46:52;;;;;;;;;;;;;;;19.78;39.96;101152.86;104322;1311;61180;-83
2022/04/04 02:49:20;;;;;;;;;;;;;;;19.78;39.83;101148.60;104376;1311;74763;-85
2022/04/04 02:51:49;;;;;;;;;;;;;;;19.78;40.07;101150.20;104310;1311;61286;-84
2022/04/04 02:54:20;;;;;;;;;;;;;;;19.77;39.88;101151.12;104261;1311;61264;-81
2022/04/04 02:56:51;;;;;;;;;;;;;;;19.76;39.95;101151.88;104422;1311;72977;-81
2022/04/04 02:59:20;;;;;;;;;;;;;;;19.76;39.98;101152.24;104536;1305;75984;-81
2022/04/04 03:01:48;;;;;;;;;;;;;;;19.76;39.97;101155.09;104712;1305;61376;-82
2022/04/04 03:04:15;;;;;;;;;;;;;;;19.76;39.92;101158.48;104668;1306;61199;-81
2022/04/04 03:06:43;;;;;;;;;;;;;;;19.75;39.94;101163.87;104680;1305;74072;-81
2022/04/04 03:09:14;;;;;;;;;;;;;;;19.75;40.18;101167.66;104781;1305;74739;-83
2022/04/04 03:11:43;;;;;;;;;;;;;;;19.75;39.95;101166.77;104674;1305;61287;-81
2022/04/04 03:14:12;;;;;;;;;;;;;;;19.75;39.98;101172.12;104878;1305;61287;-79
2022/04/04 03:16:43;;;;;;;;;;;;;;;19.74;40.10;101177.33;104695;1305;73901;-81
2022/04/04 03:19:33;;;;;;;;;;;;;;;;;;;;;
2022/04/04 03:21:59;;;;;;;;;;;;;;;19.74;39.92;101185.75;104879;1305;61284;-82
2022/04/04 03:24:37;;;;;;;;;;;;;;;19.74;39.96;101187.20;104624;1307;61566;-81
2022/04/04 03:27:33;;;;;;;;;;;;;;;;;;;;;
2022/04/04 03:30:04;;;;;;;;;;;;;;;19.73;40.12;101194.72;104702;1306;74889;-79
2022/04/04 03:32:40;;;;;;;;;;;;;;;19.74;40.13;101193.82;104681;1305;61081;-79
2022/04/04 03:35:05;;;;;;;;;;;;;;;19.74;39.95;101195.06;104726;1306;61188;-82
2022/04/04 03:37:35;;;;;;;;;;;;;;;19.74;40.14;101195.60;104674;1306;61356;-82
2022/04/04 03:40:23;;;;;;;;;;;;;;;;;;;;;
2022/04/04 03:42:56;;;;;;;;;;;;;;;19.73;40.08;101205.13;104725;1306;61184;-81
2022/04/04 03:45:34;;;;;;;;;;;;;;;19.73;40.08;101206.53;104865;1305;61287;-82
2022/04/04 03:48:14;;;;;;;;;;;;;;;19.72;40.01;101206.38;104874;1305;72569;-81
2022/04/04 03:50:54;;;;;;;;;;;;;;;;;;;;;
2022/04/04 03:53:43;;;;;;;;;;;;;;;19.72;40.05;101208.16;104647;1306;61270;-79
2022/04/04 03:56:15;;;;;;;;;;;;;;;19.72;40.02;101206.79;104703;1305;61174;-83
2022/04/04 03:58:52;;;;;;;;;;;;;;;19.72;40.15;101210.55;104920;1304;73824;-82
2022/04/04 04:01:22;;;;;;;;;;;;;;;19.71;40.12;101211.81;104673;1306;75000;-81
2022/04/04 04:03:51;;;;;;;;;;;;;;;19.71;40.02;101212.17;104776;1306;61141;-81
2022/04/04 04:06:31;;;;;;;;;;;;;;;19.71;40.16;101218.61;104617;1305;61251;-79
2022/04/04 04:09:25;;;;;;;;;;;;;;;19.70;40.14;101222.02;104582;1306;73737;-79
2022/04/04 04:12:01;;;;;;;;;;;;;;;19.70;40.05;101226.13;104884;1305;74808;-80
2022/04/04 04:14:30;;;;;;;;;;;;;;;19.71;40.07;101228.45;104612;1306;61010;-83
2022/04/04 04:16:55;;;;;;;;;;;;;;;19.71;40.13;101232.91;104642;1305;61305;-81
2022/04/04 04:22:14;;;;;;;;;;;;;;;19.73;40.13;101236.33;104698;1306;74662;-83
2022/04/04 04:24:43;;;;;;;;;;;;;;;19.75;40.08;101242.30;104856;1305;61193;-79
2022/04/04 04:27:12;;;;;;;;;;;;;;;19.78;40.25;101242.88;104678;1306;61357;-83
2022/04/04 04:29:46;;;;;;;;;;;;;;;19.81;40.01;101252.36;104698;1306;73975;-83
2022/04/04 04:32:26;;;;;;;;;;;;;;;19.84;40.18;101257.00;104669;1305;75048;-81
2022/04/04 04:34:55;;;;;;;;;;;;;;;19.89;40.03;101264.95;104816;1305;61351;-81
2022/04/04 04:37:24;;;;;;;;;;;;;;;19.93;40.29;101268.82;104766;1303;61358;-82
2022/04/04 04:40:13;;;;;;;;;;;;;;;;;;;;;
2022/04/04 04:42:49;;;;;;;;;;;;;;;20.03;40.17;101269.83;104701;1305;74714;-81
2022/04/04 04:45:17;;;;;;;;;;;;;;;20.08;40.11;101269.00;104620;1306;61196;-81
2022/04/04 04:47:45;;;;;;;;;;;;;;;20.12;40.16;101275.33;104581;1307;61228;-85
2022/04/04 04:50:12;;;;;;;;;;;;;;;20.16;40.05;101279.04;104758;1305;72850;-81
2022/04/04 04:52:55;;;;;;;;;;;;;;;20.21;39.98;101278.41;104517;1306;76168;-81
2022/04/04 04:55:24;;;;;;;;;;;;;;;20.25;39.92;101277.41;104529;1305;61364;-84
2022/04/04 04:57:53;;;;;;;;;;;;;;;20.29;39.97;101278.84;104511;1306;61291;-81
2022/04/04 05:00:23;;;;;;;;;;;;;;;20.33;39.97;101280.91;104473;1305;73928;-81
2022/04/04 05:03:24;;;;;;;;;;;;;;;20.36;39.99;101284.30;104378;1306;74918;-83
2022/04/04 05:05:36;;;;;;;;;;;;;;;20.39;39.99;101283.55;104513;1306;61413;-81
2022/04/04 05:08:02;;;;;;;;;;;;;;;20.43;39.96;101289.20;104426;1306;61427;-81
2022/04/04 05:10:41;;;;;;;;;;;;;;;20.47;39.93;101293.12;104447;1305;72854;-82
2022/04/04 05:13:07;;;;;;;;;;;;;;;20.49;39.91;101299.75;104477;1306;61355;-79
2022/04/04 05:15:33;;;;;;;;;;;;;;;20.51;39.67;101300.02;104444;1305;60002;-79
2022/04/04 05:17:59;;;;;;;;;;;;;;;20.51;39.30;101302.49;104545;1306;61311;-80
2022/04/04 05:20:25;;;;;;;;;;;;;;;20.51;39.28;101306.25;104403;1306;61474;-80
2022/04/04 05:22:50;;;;;;;;;;;;;;;20.51;38.95;101311.13;104703;1305;61392;-81
2022/04/04 05:25:16;;;;;;;;;;;;;;;20.48;38.69;101312.18;104526;1306;61332;-80
2022/04/04 05:27:42;;;;;;;;;;;;;;;20.46;38.37;101316.25;104478;1306;61397;-83
2022/04/04 05:30:08;;;;;;;;;;;;;;;20.44;38.17;101327.80;104376;1306;62136;-82
2022/04/04 05:32:34;;;;;;;;;;;;;;;20.41;38.02;101327.24;104411;1305;59767;-79
2022/04/04 05:35:06;;;;;;;;;;;;;;;20.39;37.76;101322.20;104737;1305;75041;-84
2022/04/04 05:37:32;;;;;;;;;;;;;;;20.38;37.47;101322.45;104725;1306;61169;-80
2022/04/04 05:39:58;;;;;;;;;;;;;;;20.36;37.48;101321.45;104505;1306;61471;-80
2022/04/04 05:42:23;;;;;;;;;;;;;;;20.35;37.13;101328.66;104742;1305;61425;-81
2022/04/04 05:44:49;;;;;;;;;;;;;;;20.34;37.10;101332.85;104578;1305;61329;-79
2022/04/04 05:47:18;;;;;;;;;;;;;;;20.34;37.07;101336.27;104604;1306;61662;-80
2022/04/04 05:49:44;;;;;;;;;;;;;;;20.33;36.72;101332.02;104475;1308;61191;-83
2022/04/04 05:52:10;;;;;;;;;;;;;;;20.32;36.66;101333.86;104539;1306;61407;-81
2022/04/04 05:54:53;;;;;;;;;;;;;;;20.32;36.57;101333.16;104418;1306;74080;-83
2022/04/04 05:57:23;;;;;;;;;;;;;;;20.32;36.43;101337.63;104490;1305;61546;-81
2022/04/04 05:59:49;;;;;;;;;;;;;;;20.32;36.30;101341.37;104638;1306;61265;-82
2022/04/04 06:02:20;;;;;;;;;;;;;;;20.32;36.04;101345.66;104674;1306;61167;-80
2022/04/04 06:04:46;;;;;;;;;;;;;;;20.33;36.12;101350.65;104662;1306;74955;-81
2022/04/04 06:07:12;;;;;;;;;;;;;;;20.32;35.79;101347.83;104589;1307;61510;-82
2022/04/04 06:09:45;;;;;;;;;;;;;;;20.33;35.67;101353.66;104638;1306;61265;-81
2022/04/04 06:12:11;;;;;;;;;;;;;;;20.34;35.64;101364.33;104597;1305;72953;-83
2022/04/04 06:14:37;;;;;;;;;;;;;;;20.35;35.23;101365.89;104460;1307;61304;-81
2022/04/04 06:17:06;;;;;;;;;;;;;;;20.35;35.07;101365.52;104383;1306;61367;-82
2022/04/04 06:19:34;;;;;;;;;;;;;;;20.35;35.24;101362.82;104513;1306;61275;-81
2022/04/04 06:22:03;;;;;;;;;;;;;;;20.36;34.88;101366.38;104606;1305;74234;-82
2022/04/04 06:24:31;;;;;;;;;;;;;;;20.36;34.94;101371.87;104466;1306;61313;-82
2022/04/04 06:27:00;;;;;;;;;;;;;;;20.37;34.90;101374.66;104563;1306;62058;-81
2022/04/04 06:29:26;;;;;;;;;;;;;;;20.38;34.63;101383.23;104501;1305;61400;-83
2022/04/04 06:31:53;;;;;;;;;;;;;;;20.39;34.50;101381.35;104524;1305;61279;-81
2022/04/04 06:34:19;;;;;;;;;;;;;;;20.40;34.39;101380.77;104643;1306;74235;-82
2022/04/04 06:36:46;;;;;;;;;;;;;;;20.41;34.42;101381.98;104508;1306;61448;-80
2022/04/04 06:39:13;;;;;;;;;;;;;;;20.41;34.30;101386.77;104516;1306;61075;-81
2022/04/04 06:41:39;;;;;;;;;;;;;;;20.42;34.18;101389.77;104748;1305;74848;-81
2022/04/04 06:44:06;;;;;;;;;;;;;;;20.43;34.27;101390.42;104775;1304;74821;-81
2022/04/04 06:46:35;;;;;;;;;;;;;;;20.45;33.81;101386.05;104301;1306;444561;-80
2022/04/04 06:49:02;;;;;;;;;;;;;;;20.45;34.16;101382.98;104681;1306;61249;-80
2022/04/04 06:51:28;;;;;;;;;;;;;;;20.46;33.90;101384.91;104637;1306;61200;-81
2022/04/04 06:53:55;;;;;;;;;;;;;;;20.47;33.69;101390.92;104633;1306;73768;-80
2022/04/04 06:56:21;;;;;;;;;;;;;;;20.47;33.75;101393.42;104663;1305;61285;-78
2022/04/04 06:58:47;;;;;;;;;;;;;;;20.47;33.55;101397.16;104477;1305;61311;-81
2022/04/04 07:01:16;;;;;;;;;;;;;;;20.48;33.53;101393.73;104758;1305;61285;-81
2022/04/04 07:03:41;;;;;;;;;;;;;;;20.48;33.48;101396.06;104590;1306;61234;-80
2022/04/04 07:06:07;;;;;;;;;;;;;;;20.49;33.48;101398.89;104697;1305;61402;-83
2022/04/04 07:08:39;;;;;;;;;;;;;;;20.51;33.63;101399.59;104655;1305;61285;-81
2022/04/04 07:11:10;;;;;;;;;;;;;;;20.55;33.49;101402.39;104753;1305;73897;-80
2022/04/04 07:13:41;;;;;;;;;;;;;;;20.59;33.53;101406.11;104550;1306;75985;-81
2022/04/04 07:16:07;;;;;;;;;;;;;;;20.63;33.58;101405.39;104562;1306;61150;-80
2022/04/04 07:18:34;;;;;;;;;;;;;;;20.65;33.65;101402.37;104636;1305;61398;-81
2022/04/04 07:21:00;;;;;;;;;;;;;;;20.67;33.80;101405.27;104490;1307;61290;-81
2022/04/04 07:23:26;;;;;;;;;;;;;;;20.70;33.68;101405.30;104564;1306;62557;-81
2022/04/04 07:25:53;;;;;;;;;;;;;;;20.72;33.85;101404.81;104840;1306;61273;-83
2022/04/04 07:28:23;;;;;;;;;;;;;;;20.76;33.92;101406.02;104539;1306;61704;-79
2022/04/04 07:30:52;;;;;;;;;;;;;;;20.80;33.89;101405.45;104453;1305;72841;-81
2022/04/04 07:33:23;;;;;;;;;;;;;;;20.83;34.05;101403.63;104545;1306;73620;-81
2022/04/04 07:35:49;;;;;;;;;;;;;;;20.86;34.01;101398.05;104510;1305;61176;-81
2022/04/04 07:38:16;;;;;;;;;;;;;;;20.89;34.13;101400.92;104532;1305;61170;-79
2022/04/04 07:40:43;;;;;;;;;;;;;;;20.92;33.98;101399.52;104640;1306;72832;-81
2022/04/04 07:43:12;;;;;;;;;;;;;;;20.93;34.27;101402.12;104546;1305;61642;-81
2022/04/04 07:45:38;;;;;;;;;;;;;;;20.96;34.36;101399.85;104443;1308;61474;-80
2022/04/04 07:48:04;;;;;;;;;;;;;;;20.98;34.17;101405.03;104485;1306;62814;-81
2022/04/04 07:50:35;;;;;;;;;;;;;;;21.00;34.36;101410.51;104582;1306;61311;-82
2022/04/04 07:53:04;;;;;;;;;;;;;;;21.02;34.23;101411.30;104591;1306;74739;-81
2022/04/04 07:55:36;;;;;;;;;;;;;;;21.02;34.42;101416.83;104316;1306;61042;-82
2022/04/04 07:58:02;;;;;;;;;;;;;;;21.04;34.45;101424.92;104504;1306;61431;-81
2022/04/04 08:00:31;;;;;;;;;;;;;;;21.02;34.41;101424.83;104367;1306;73728;-81
2022/04/04 08:03:00;;;;;;;;;;;;;;;21.03;34.45;101426.60;104381;1306;74652;-82
2022/04/04 08:05:31;;;;;;;;;;;;;;;21.00;34.30;101424.08;104667;1305;61350;-83
2022/04/04 08:07:57;;;;;;;;;;;;;;;20.99;34.28;101427.91;104424;1306;61860;-81
2022/04/04 08:10:26;;;;;;;;;;;;;;;20.97;34.41;101427.86;104507;1305;61275;-81
2022/04/04 08:12:54;;;;;;;;;;;;;;;20.95;34.21;101424.05;104302;1305;73234;-81
2022/04/04 08:15:22;;;;;;;;;;;;;;;20.93;34.13;101425.71;104561;1305;61310;-82
2022/04/04 08:17:48;;;;;;;;;;;;;;;20.92;33.96;101425.27;104541;1305;61438;-81
2022/04/04 08:20:14;;;;;;;;;;;;;;;20.91;33.57;101423.56;104691;1303;59844;-80
2022/04/04 08:22:43;;;;;;;;;;;;;;;20.89;33.54;101426.02;104655;1305;61241;-81
2022/04/04 08:25:10;;;;;;;;;;;;;;;20.88;33.59;101418.73;104559;1305;61151;-81
2022/04/04 08:27:36;;;;;;;;;;;;;;;20.87;33.18;101415.73;104482;1305;61683;-81
2022/04/04 08:30:05;;;;;;;;;;;;;;;20.86;33.06;101415.45;104461;1305;61326;-81
2022/04/04 08:32:32;;;;;;;;;;;;;;;20.86;32.90;101422.75;104567;1305;75834;-81
2022/04/04 08:34:58;;;;;;;;;;;;;;;20.87;32.93;101415.19;104480;1306;61397;-80
2022/04/04 08:37:23;;;;;;;;;;;;;;;20.86;32.73;101412.73;104432;1308;61451;-80
2022/04/04 08:39:49;;;;;;;;;;;;;;;20.86;32.67;101410.61;104477;1305;61273;-81
2022/04/04 08:42:15;;;;;;;;;;;;;;;20.86;32.38;101403.85;104643;1305;59386;-81
2022/04/04 08:44:42;;;;;;;;;;;;;;;20.85;32.27;101405.48;104620;1305;61183;-80
2022/04/04 08:47:07;;;;;;;;;;;;;;;20.85;32.20;101402.59;104439;1305;61355;-79
2022/04/04 08:49:36;;;;;;;;;;;;;;;20.85;32.07;101402.08;104295;1307;61374;-81
2022/04/04 08:52:02;;;;;;;;;;;;;;;20.85;31.72;101395.64;104432;1305;73221;-81
2022/04/04 08:54:27;;;;;;;;;;;;;;;20.86;31.63;101390.39;104430;1305;61214;-83
2022/04/04 08:56:59;;;;;;;;;;;;;;;20.83;31.64;101388.08;104404;1304;61304;-83
2022/04/04 08:59:28;;;;;;;;;;;;;;;20.80;31.34;101386.80;104395;1305;61352;-81
2022/04/04 09:01:54;;;;;;;;;;;;;;;20.79;31.17;101378.52;104515;1305;74008;-81
2022/04/04 09:04:21;;;;;;;;;;;;;;;20.78;30.96;101374.45;104618;1305;61315;-88
2022/04/04 09:07:10;;;;;;;;;;;;;;;20.76;31.15;101370.06;104508;1308;61827;-80
2022/04/04 09:09:41;;;;;;;;;;;;;;;20.75;31.16;101368.13;104411;1307;61935;-83
2022/04/04 09:12:09;;;;;;;;;;;;;;;20.76;31.02;101367.74;104495;1305;73756;-84
2022/04/04 09:14:38;;;;;;;;;;;;;;;20.75;31.33;101365.97;104504;1306;73788;-84
2022/04/04 09:17:24;;;;;;;;;;;;;;;20.74;30.98;101359.80;104551;1305;61286;-81
2022/04/04 09:19:55;;;;;;;;;;;;;;;20.73;30.97;101361.99;104524;1307;61841;-81
2022/04/04 09:22:24;;;;;;;;;;;;;;;20.73;30.84;101357.02;104536;1306;72229;-83
2022/04/04 09:24:55;;;;;;;;;;;;;;;20.74;30.86;101353.92;104816;1305;75285;-83
2022/04/04 09:27:23;;;;;;;;;;;;;;;20.75;30.81;101350.25;104864;1305;61419;-83
2022/04/04 09:29:50;;;;;;;;;;;;;;;20.79;30.71;101349.34;104568;1307;61238;-82
2022/04/04 09:32:18;;;;;;;;;;;;;;;20.82;31.11;101345.60;104495;1305;61201;-84
2022/04/04 09:35:11;;;;;;;;;;;;;;;20.84;31.12;101342.02;104607;1305;74608;-82
2022/04/04 09:37:49;;;;;;;;;;;;;;;20.86;30.99;101333.48;104815;1305;61385;-82
2022/04/04 09:40:18;;;;;;;;;;;;;;;20.88;31.12;101326.94;104691;1305;61330;-82
2022/04/04 09:43:21;;;;;;;;;;;;;;;20.89;30.82;101318.48;104684;1305;73833;-82
2022/04/04 09:45:53;;;;;;;;;;;;;;;20.90;31.44;101311.97;104345;1311;76609;-83
2022/04/04 09:48:19;;;;;;;;;;;;;;;20.89;31.39;101305.06;104318;1312;61435;-80
2022/04/04 09:50:49;;;;;;;;;;;;;;;20.89;31.42;101304.49;104230;1311;61276;-82
2022/04/04 09:53:49;;;;;;;;;;;;;;;20.88;31.55;101300.31;104317;1311;74489;-84
2022/04/04 09:56:34;;;;;;;;;;;;;;;20.86;31.60;101289.16;104280;1311;74849;-83
2022/04/04 09:59:05;;;;;;;;;;;;;;;20.85;31.66;101280.80;104324;1311;61323;-82
2022/04/04 10:01:33;;;;;;;;;;;;;;;20.83;31.99;101281.25;104301;1311;61441;-83
2022/04/04 10:04:17;;;;;;;;;;;;;;;20.81;32.14;101272.10;104248;1311;73789;-82
2022/04/04 10:06:51;;;;;;;;;;;;;;;20.79;32.13;101270.48;104260;1311;76011;-82
2022/04/04 10:09:34;;;;;;;;;;;;;;;20.77;32.21;101265.71;104203;1311;61330;-81
2022/04/04 10:12:09;;;;;;;;;;;;;;;;;;;;;
2022/04/04 10:14:47;;;;;;;;;;;;;;;20.73;32.46;101266.66;104186;1311;73904;-82
2022/04/04 10:17:19;;;;;;;;;;;;;;;20.73;32.54;101268.15;104089;1311;75263;-81
2022/04/04 10:19:54;;;;;;;;;;;;;;;20.71;32.55;101268.27;104321;1311;61311;-82
2022/04/04 10:22:37;;;;;;;;;;;;;;;20.70;32.71;101261.02;104272;1305;61712;-82
2022/04/04 10:25:04;;;;;;;;;;;;;;;20.68;32.74;101254.80;104638;1305;72914;-80
2022/04/04 10:27:33;;;;;;;;;;;;;;;20.67;32.82;101261.66;104359;1308;59242;-81
2022/04/04 10:30:08;;;;;;;;;;;;;;;20.67;32.89;101255.09;104639;1305;61184;-81
2022/04/04 10:32:55;;;;;;;;;;;;;;;20.65;32.84;101247.65;104720;1305;61325;-82
2022/04/04 10:35:22;;;;;;;;;;;;;;;20.65;32.99;101244.82;104670;1305;73450;-84
2022/04/04 10:37:50;;;;;;;;;;;;;;;20.64;33.15;101249.52;104405;1308;73849;-80
2022/04/04 10:40:24;;;;;;;;;;;;;;;20.63;33.31;101246.75;104598;1306;62718;-84
2022/04/04 10:43:09;;;;;;;;;;;;;;;20.62;33.22;101250.55;104620;1305;61218;-82
2022/04/04 10:45:54;;;;;;;;;;;;;;;20.61;33.41;101246.48;104633;1305;74014;-82
2022/04/04 10:48:27;;;;;;;;;;;;;;;20.60;33.39;101242.61;104696;1305;73625;-82
2022/04/04 10:50:55;;;;;;;;;;;;;;;20.59;33.58;101240.12;104570;1306;61199;-84
2022/04/04 10:53:46;;;;;;;;;;;;;;;20.58;33.37;101232.69;104545;1305;61380;-84
2022/04/04 10:56:18;;;;;;;;;;;;;;;20.58;33.57;101233.45;104667;1305;73374;-82
2022/04/04 10:58:50;;;;;;;;;;;;;;;20.57;33.77;101226.17;104819;1305;74817;-81
2022/04/04 11:01:18;;;;;;;;;;;;;;;20.55;33.69;101226.45;104521;1305;61218;-84
2022/04/04 11:03:44;;;;;;;;;;;;;;;20.55;33.70;101226.32;104562;1305;61183;-83
2022/04/04 11:09:05;;;;;;;;;;;;;;;20.53;33.94;101219.04;104745;1305;74775;-83
2022/04/04 11:11:50;;;;;;;;;;;;;;;20.52;33.99;101214.10;104600;1305;61960;-81
2022/04/04 11:14:42;;;;;;;;;;;;;;;20.52;34.01;101213.44;104764;1304;61292;-80
2022/04/04 11:20:21;;;;;;;;;;;;;;;20.50;34.06;101211.21;104741;1305;76194;-79
2022/04/04 11:22:59;;;;;;;;;;;;;;;20.49;34.17;101206.27;104738;1305;61197;-81
2022/04/04 11:25:29;;;;;;;;;;;;;;;20.49;34.31;101201.09;104528;1305;61252;-81
2022/04/04 11:27:57;;;;;;;;;;;;;;;20.48;34.34;101201.52;104678;1305;72724;-82
2022/04/04 11:30:24;;;;;;;;;;;;;;;20.47;34.58;101199.43;104360;1308;74147;-81
2022/04/04 11:32:53;;;;;;;;;;;;;;;20.48;34.60;101202.44;104839;1305;61620;-81
2022/04/04 11:35:22;;;;;;;;;;;;;;;20.46;34.62;101201.44;104672;1305;61434;-81
2022/04/04 11:37:54;;;;;;;;;;;;;;;20.46;34.50;101200.05;104789;1305;72183;-82
2022/04/04 11:40:29;;;;;;;;;;;;;;;20.45;34.84;101188.65;104701;1305;75787;-81
2022/04/04 11:42:59;;;;;;;;;;;;;;;20.45;34.98;101177.20;104609;1305;61322;-82
2022/04/04 11:45:28;;;;;;;;;;;;;;;20.44;34.92;101174.06;104526;1306;61285;-81
2022/04/04 11:48:04;;;;;;;;;;;;;;;20.43;34.88;101172.99;104453;1305;72961;-81
2022/04/04 11:50:35;;;;;;;;;;;;;;;20.42;35.07;101176.46;104418;1308;76029;-79
2022/04/04 11:53:02;;;;;;;;;;;;;;;20.41;34.93;101170.07;104560;1305;61079;-81
2022/04/04 11:55:29;;;;;;;;;;;;;;;20.42;35.18;101161.30;104698;1305;61742;-80
2022/04/04 11:58:01;;;;;;;;;;;;;;;20.42;35.21;101160.74;104609;1305;72645;-81
2022/04/04 12:00:30;;;;;;;;;;;;;;;20.42;35.07;101163.60;104430;1306;74981;-81
2022/04/04 12:03:03;;;;;;;;;;;;;;;20.42;35.26;101157.17;104602;1305;61204;-81
2022/04/04 12:05:34;;;;;;;;;;;;;;;20.42;35.28;101153.64;104760;1305;61276;-82
2022/04/04 12:08:03;;;;;;;;;;;;;;;20.42;35.18;101152.73;104589;1303;61275;-82
2022/04/04 12:10:38;;;;;;;;;;;;;;;20.41;35.18;101159.20;104638;1305;74724;-81
2022/04/04 12:13:07;;;;;;;;;;;;;;;20.41;35.44;101154.94;104709;1305;61600;-81
2022/04/04 12:15:34;;;;;;;;;;;;;;;20.40;35.48;101148.17;104607;1305;61233;-83
2022/04/04 12:18:10;;;;;;;;;;;;;;;20.40;35.47;101145.33;104511;1308;71679;-81
2022/04/04 12:20:49;;;;;;;;;;;;;;;20.39;35.48;101150.75;104539;1305;75916;-82
2022/04/04 12:26:11;;;;;;;;;;;;;;;20.39;35.62;101139.52;104654;1305;59791;-80
2022/04/04 12:28:43;;;;;;;;;;;;;;;20.38;35.42;101130.79;104632;1305;74250;-82
2022/04/04 12:31:20;;;;;;;;;;;;;;;20.38;35.67;101126.52;104480;1308;74937;-81
2022/04/04 12:33:53;;;;;;;;;;;;;;;20.37;35.64;101127.48;104477;1305;61189;-83
2022/04/04 12:36:35;;;;;;;;;;;;;;;20.36;35.40;101123.39;104641;1305;61262;-79
2022/04/04 12:39:03;;;;;;;;;;;;;;;20.36;35.69;101120.21;104510;1305;72933;-81
2022/04/04 12:41:34;;;;;;;;;;;;;;;20.36;35.51;101122.70;104575;1305;73833;-82
2022/04/04 12:44:02;;;;;;;;;;;;;;;20.35;35.88;101116.31;104453;1305;61256;-81
2022/04/04 12:46:31;;;;;;;;;;;;;;;20.35;35.72;101115.58;104545;1305;61269;-81
2022/04/04 12:49:20;;;;;;;;;;;;;;;20.36;35.87;101110.41;104441;1305;73287;-81
2022/04/04 12:51:59;;;;;;;;;;;;;;;20.35;36.00;101104.53;104345;1307;74836;-81
2022/04/04 12:54:30;;;;;;;;;;;;;;;20.36;36.06;101105.20;104520;1306;61304;-81
2022/04/04 12:57:03;;;;;;;;;;;;;;;20.35;35.97;101103.98;104477;1305;61455;-82
2022/04/04 12:59:50;;;;;;;;;;;;;;;20.36;36.15;101096.44;104755;1305;72869;-81
2022/04/04 13:02:33;;;;;;;;;;;;;;;20.36;36.16;101097.50;104586;1306;74861;-82
2022/04/04 13:05:22;;;;;;;;;;;;;;;20.36;36.12;101088.23;104492;1305;61267;-81
2022/04/04 13:08:05;;;;;;;;;;;;;;;20.36;36.05;101085.71;104469;1308;61239;-84
2022/04/04 13:10:39;;;;;;;;;;;;;;;20.35;36.27;101081.63;104490;1305;73198;-81
2022/04/04 13:13:08;;;;;;;;;;;;;;;20.35;36.08;101085.42;104745;1305;74622;-81
2022/04/04 13:16:01;;;;;;;;;;;;;;;20.35;36.16;101078.06;104718;1305;61411;-82
2022/04/04 13:18:50;;;;;;;;;;;;;;;;;;;;;